Time,TemperatureF,DewpointF,PressureIn,WindDirection,WindDirectionDegrees,WindSpeedMPH,WindSpeedGustMPH,Humidity,HourlyPrecipIn,Conditions,Clouds,dailyrainin,SoftwareType,DateUTC
2013-05-17 00:03:00,76.0,65.0,30.03,ESE,119,0.0,7.0,69,0.00,,,0.00,,2013-05-17 04:03:00,
2013-05-17 00:13:00,76.0,65.0,30.03,ESE,119,0.0,7.0,69,0.00,,,0.00,,2013-05-17 04:13:00,
2013-05-17 00:23:00,76.0,65.0,30.03,SE,139,2.0,7.0,70,0.00,,,0.00,,2013-05-17 04:23:00,
2013-05-17 00:33:00,76.0,65.0,30.03,SE,132,2.0,8.0,69,0.00,,,0.00,,2013-05-17 04:33:00,
2013-05-17 00:43:00,76.0,65.0,30.03,SE,132,2.0,8.0,69,0.00,,,0.00,,2013-05-17 04:43:00,
2013-05-17 00:53:00,76.0,65.0,30.03,SE,135,0.0,7.0,70,0.00,,,0.00,,2013-05-17 04:53:00,
2013-05-17 01:03:00,76.0,66.0,30.03,ESE,106,0.0,6.0,71,0.00,,,0.00,,2013-05-17 05:03:00,
2013-05-17 01:14:00,76.0,66.0,30.03,ESE,106,0.0,6.0,71,0.00,,,0.00,,2013-05-17 05:14:00,
2013-05-17 01:22:00,76.0,66.0,30.02,ESE,114,0.0,5.0,71,0.00,,,0.00,,2013-05-17 05:22:00,
2013-05-17 01:32:00,76.0,66.0,30.02,SSE,152,1.0,8.0,71,0.00,,,0.00,,2013-05-17 05:32:00,
2013-05-17 01:42:00,76.0,66.0,30.02,SSE,152,1.0,8.0,71,0.00,,,0.00,,2013-05-17 05:42:00,
2013-05-17 01:52:00,76.0,65.0,30.01,ESE,120,2.0,6.0,69,0.00,,,0.00,,2013-05-17 05:52:00,
2013-05-17 02:02:00,76.0,65.0,30.01,ESE,109,1.0,5.0,69,0.00,,,0.00,,2013-05-17 06:02:00,
2013-05-17 02:11:00,76.0,65.0,30.01,ESE,109,1.0,5.0,69,0.00,,,0.00,,2013-05-17 06:11:00,
2013-05-17 02:22:00,76.0,65.0,30.01,SSE,157,1.0,6.0,70,0.00,,,0.00,,2013-05-17 06:22:00,
2013-05-17 02:32:00,76.0,66.0,30.01,SSE,155,0.0,5.0,71,0.00,,,0.00,,2013-05-17 06:32:00,
2013-05-17 02:42:00,76.0,66.0,30.01,SSE,155,0.0,5.0,71,0.00,,,0.00,,2013-05-17 06:42:00,
2013-05-17 02:52:00,76.0,66.0,30.01,SE,136,0.0,4.0,71,0.00,,,0.00,,2013-05-17 06:52:00,
2013-05-17 03:02:00,76.0,66.0,30.00,SE,136,0.0,2.0,72,0.00,,,0.00,,2013-05-17 07:02:00,
2013-05-17 03:11:00,76.0,66.0,30.00,SE,136,0.0,2.0,72,0.00,,,0.00,,2013-05-17 07:11:00,
2013-05-17 03:21:00,76.0,66.0,30.00,SE,134,0.0,3.0,72,0.00,,,0.00,,2013-05-17 07:21:00,
2013-05-17 03:32:00,76.0,67.0,30.00,ESE,118,0.0,4.0,73,0.00,,,0.00,,2013-05-17 07:32:00,
2013-05-17 03:43:00,76.0,67.0,29.99,ESE,118,0.0,1.0,73,0.00,,,0.00,,2013-05-17 07:43:00,
2013-05-17 03:53:00,76.0,67.0,29.99,ESE,118,0.0,1.0,73,0.00,,,0.00,,2013-05-17 07:53:00,
2013-05-17 04:02:00,76.0,67.0,29.99,ESE,118,0.0,0.0,74,0.00,,,0.00,,2013-05-17 08:02:00,
2013-05-17 04:12:00,76.0,67.0,29.99,ESE,118,0.0,0.0,74,0.00,,,0.00,,2013-05-17 08:12:00,
2013-05-17 04:23:00,76.0,67.0,29.99,ESE,118,0.0,2.0,74,0.00,,,0.00,,2013-05-17 08:23:00,
2013-05-17 04:33:00,76.0,67.0,29.99,ESE,117,1.0,3.0,75,0.00,,,0.00,,2013-05-17 08:33:00,
2013-05-17 04:42:00,76.0,67.0,29.99,ESE,117,1.0,3.0,75,0.00,,,0.00,,2013-05-17 08:42:00,
2013-05-17 04:52:00,76.0,67.0,29.99,ESE,117,0.0,0.0,75,0.00,,,0.00,,2013-05-17 08:52:00,
2013-05-17 05:02:00,76.0,67.0,29.98,ESE,117,0.0,1.0,75,0.00,,,0.00,,2013-05-17 09:02:00,
2013-05-17 05:12:00,76.0,67.0,29.98,ESE,117,0.0,1.0,75,0.00,,,0.00,,2013-05-17 09:12:00,
2013-05-17 05:22:00,76.0,68.0,29.98,ESE,116,2.0,5.0,77,0.00,,,0.00,,2013-05-17 09:22:00,
2013-05-17 05:33:00,76.0,68.0,29.99,ESE,115,1.0,5.0,77,0.00,,,0.00,,2013-05-17 09:33:00,
2013-05-17 05:42:00,76.0,68.0,29.99,ESE,115,1.0,5.0,77,0.00,,,0.00,,2013-05-17 09:42:00,
2013-05-17 05:53:00,76.0,69.0,29.99,SSE,157,3.0,9.0,79,0.00,,,0.00,,2013-05-17 09:53:00,
2013-05-17 06:03:00,76.0,69.0,29.99,ESE,117,2.0,8.0,80,0.00,,,0.00,,2013-05-17 10:03:00,
2013-05-17 06:12:00,76.0,69.0,29.99,ESE,117,2.0,8.0,80,0.00,,,0.00,,2013-05-17 10:12:00,
2013-05-17 06:23:00,76.0,69.0,29.99,ESE,114,1.0,7.0,79,0.00,,,0.00,,2013-05-17 10:23:00,
2013-05-17 06:33:00,76.0,69.0,30.00,ESE,117,2.0,10.0,79,0.00,,,0.00,,2013-05-17 10:33:00,
2013-05-17 06:42:00,76.0,69.0,30.00,ESE,117,2.0,10.0,79,0.00,,,0.00,,2013-05-17 10:42:00,
2013-05-17 06:53:00,76.0,69.0,30.01,SE,140,2.0,7.0,80,0.00,,,0.00,,2013-05-17 10:53:00,
2013-05-17 07:02:00,76.0,70.0,30.01,South,171,0.0,4.0,82,0.06,,,0.06,,2013-05-17 11:02:00,
2013-05-17 07:12:00,76.0,70.0,30.01,South,171,0.0,4.0,82,0.06,,,0.06,,2013-05-17 11:12:00,
2013-05-17 07:23:00,76.0,71.0,30.01,South,174,1.0,5.0,84,0.07,,,0.07,,2013-05-17 11:23:00,
2013-05-17 07:34:00,76.0,71.0,30.02,South,174,0.0,1.0,84,0.07,,,0.07,,2013-05-17 11:34:00,
2013-05-17 07:42:00,76.0,71.0,30.02,South,174,0.0,1.0,84,0.07,,,0.07,,2013-05-17 11:42:00,
2013-05-17 07:53:00,75.0,70.0,30.02,South,174,0.0,2.0,85,0.07,,,0.07,,2013-05-17 11:53:00,
2013-05-17 08:03:00,75.0,70.0,30.02,South,174,0.0,1.0,85,0.01,,,0.07,,2013-05-17 12:03:00,
2013-05-17 08:12:00,75.0,71.0,30.03,South,174,0.0,1.0,86,0.00,,,0.07,,2013-05-17 12:12:00,
2013-05-17 08:23:00,75.0,71.0,30.03,South,174,0.0,1.0,86,0.00,,,0.07,,2013-05-17 12:23:00,
2013-05-17 08:32:00,75.0,71.0,30.03,South,174,0.0,1.0,86,0.00,,,0.07,,2013-05-17 12:32:00,
2013-05-17 08:43:00,75.0,71.0,30.03,South,174,0.0,1.0,86,0.00,,,0.07,,2013-05-17 12:43:00,
2013-05-17 08:53:00,75.0,71.0,30.03,South,174,0.0,1.0,87,0.00,,,0.07,,2013-05-17 12:53:00,
2013-05-17 09:03:00,76.0,70.0,30.03,South,174,0.0,1.0,82,0.00,,,0.07,,2013-05-17 13:03:00,
2013-05-17 09:12:00,76.0,70.0,30.03,South,174,0.0,1.0,82,0.00,,,0.07,,2013-05-17 13:12:00,
2013-05-17 09:23:00,77.0,70.0,30.04,South,190,2.0,6.0,79,0.00,,,0.07,,2013-05-17 13:23:00,
2013-05-17 09:33:00,78.0,67.0,30.04,SSE,150,0.0,6.0,70,0.00,,,0.07,,2013-05-17 13:33:00,
2013-05-17 09:42:00,78.0,67.0,30.04,SSE,150,0.0,6.0,70,0.00,,,0.07,,2013-05-17 13:42:00,
2013-05-17 09:52:00,79.0,68.0,30.05,South,183,3.0,6.0,70,0.00,,,0.07,,2013-05-17 13:52:00,
2013-05-17 10:02:00,79.0,68.0,30.05,South,173,0.0,7.0,68,0.00,,,0.07,,2013-05-17 14:02:00,
2013-05-17 10:13:00,79.0,68.0,30.05,South,173,0.0,7.0,68,0.00,,,0.07,,2013-05-17 14:13:00,
2013-05-17 10:22:00,79.0,67.0,30.05,South,180,0.0,6.0,66,0.00,,,0.07,,2013-05-17 14:22:00,
2013-05-17 10:34:00,80.0,67.0,30.05,South,174,2.0,6.0,64,0.00,,,0.07,,2013-05-17 14:34:00,
2013-05-17 10:43:00,80.0,67.0,30.05,South,174,2.0,6.0,64,0.00,,,0.07,,2013-05-17 14:43:00,
2013-05-17 10:53:00,81.0,67.0,30.05,South,169,0.0,4.0,62,0.00,,,0.07,,2013-05-17 14:53:00,
2013-05-17 11:03:00,81.0,70.0,30.05,SE,125,0.0,4.0,69,0.00,,,0.07,,2013-05-17 15:03:00,
2013-05-17 11:14:00,81.0,70.0,30.05,SE,125,0.0,4.0,69,0.00,,,0.07,,2013-05-17 15:14:00,
2013-05-17 11:25:00,81.0,70.0,30.05,SE,134,1.0,7.0,70,0.00,,,0.07,,2013-05-17 15:25:00,
2013-05-17 11:37:00,81.0,70.0,30.05,SSE,160,2.0,7.0,69,0.00,,,0.07,,2013-05-17 15:37:00,
2013-05-17 11:47:00,81.0,70.0,30.05,SSE,160,2.0,7.0,69,0.00,,,0.07,,2013-05-17 15:47:00,
2013-05-17 11:57:00,81.0,70.0,30.05,ESE,115,0.0,5.0,70,0.00,,,0.07,,2013-05-17 15:57:00,
2013-05-17 12:07:00,82.0,71.0,30.06,ESE,121,2.0,6.0,70,0.00,,,0.07,,2013-05-17 16:07:00,
2013-05-17 12:14:00,82.0,71.0,30.06,ESE,121,2.0,6.0,70,0.00,,,0.07,,2013-05-17 16:14:00,
2013-05-17 12:26:00,81.0,71.0,30.05,ESE,121,2.0,8.0,71,0.00,,,0.07,,2013-05-17 16:26:00,
2013-05-17 12:37:00,81.0,71.0,30.05,ESE,121,2.0,8.0,71,0.00,,,0.07,,2013-05-17 16:37:00,
2013-05-17 12:49:00,81.0,71.0,30.05,ESE,121,2.0,8.0,71,0.00,,,0.07,,2013-05-17 16:49:00,
2013-05-17 12:56:00,82.0,70.0,30.05,SE,134,3.0,8.0,67,0.00,,,0.07,,2013-05-17 16:56:00,
2013-05-17 13:08:00,82.0,70.0,30.04,SE,126,3.0,8.0,68,0.00,,,0.07,,2013-05-17 17:08:00,
2013-05-17 13:19:00,82.0,70.0,30.04,SE,126,3.0,8.0,68,0.00,,,0.07,,2013-05-17 17:19:00,
2013-05-17 13:30:00,82.0,71.0,30.04,ESE,121,2.0,9.0,69,0.00,,,0.07,,2013-05-17 17:30:00,
2013-05-17 13:40:00,82.0,-99.9,30.04,ESE,120,3.0,10.0,69,0.00,,,0.07,,2013-05-17 17:40:00,
2013-05-17 13:49:00,82.0,71.0,30.04,ESE,120,3.0,10.0,69,0.00,,,0.07,,2013-05-17 17:49:00,
2013-05-17 14:00:00,83.0,-99.9,30.04,ESE,103,2.0,6.0,70,0.00,,,0.07,,2013-05-17 18:00:00,
2013-05-17 14:09:00,83.0,71.0,30.03,SSE,155,4.0,8.0,68,0.00,,,0.07,,2013-05-17 18:09:00,
2013-05-17 14:20:00,83.0,71.0,30.03,SSE,155,4.0,8.0,68,0.00,,,0.07,,2013-05-17 18:20:00,
2013-05-17 14:30:00,83.0,71.0,30.03,ESE,112,3.0,9.0,68,0.00,,,0.07,,2013-05-17 18:30:00,
2013-05-17 14:40:00,83.0,-99.9,30.03,SE,124,2.0,9.0,71,0.00,,,0.07,,2013-05-17 18:40:00,
2013-05-17 14:50:00,-999.0,-99.9,30.03,SE,124,2.0,9.0,71,0.00,,,0.07,,2013-05-17 18:50:00,
2013-05-17 15:00:00,83.0,-99.9,30.03,SE,129,2.0,8.0,70,0.00,,,0.07,,2013-05-17 19:00:00,
2013-05-17 15:10:00,83.0,72.0,30.03,SE,137,2.0,9.0,70,0.00,,,0.07,,2013-05-17 19:10:00,
2013-05-17 15:20:00,83.0,73.0,30.03,SE,125,2.0,6.0,72,0.00,,,0.07,,2013-05-17 19:20:00,
2013-05-17 15:30:00,83.0,73.0,30.03,SE,125,2.0,6.0,72,0.00,,,0.07,,2013-05-17 19:30:00,
2013-05-17 15:40:00,82.0,72.0,30.03,ESE,113,2.0,10.0,71,0.00,,,0.07,,2013-05-17 19:40:00,
2013-05-17 15:50:00,82.0,72.0,30.03,ESE,113,2.0,10.0,71,0.00,,,0.07,,2013-05-17 19:50:00,
2013-05-17 16:01:00,-999.0,-99.9,30.02,SE,124,4.0,11.0,72,0.00,,,0.07,,2013-05-17 20:01:00,
2013-05-17 16:09:00,82.0,73.0,30.02,SE,137,3.0,11.0,74,0.00,,,0.07,,2013-05-17 20:09:00,
2013-05-17 16:20:00,82.0,73.0,30.02,SE,137,3.0,11.0,74,0.00,,,0.07,,2013-05-17 20:20:00,
2013-05-17 16:30:00,82.0,72.0,30.02,East,97,3.0,12.0,72,0.00,,,0.07,,2013-05-17 20:30:00,
2013-05-17 16:40:00,82.0,72.0,30.02,SSE,160,3.0,8.0,71,0.00,,,0.07,,2013-05-17 20:40:00,
2013-05-17 16:50:00,82.0,72.0,30.02,SSE,160,3.0,8.0,71,0.00,,,0.07,,2013-05-17 20:50:00,
2013-05-17 16:58:00,82.0,72.0,30.02,East,90,3.0,9.0,71,0.00,,,0.07,,2013-05-17 20:58:00,
2013-05-17 17:07:00,82.0,72.0,30.02,SE,125,4.0,10.0,72,0.00,,,0.07,,2013-05-17 21:07:00,
2013-05-17 17:17:00,82.0,72.0,30.02,SE,125,4.0,10.0,72,0.00,,,0.07,,2013-05-17 21:17:00,
2013-05-17 17:26:00,83.0,73.0,30.02,SE,128,2.0,10.0,71,0.00,,,0.07,,2013-05-17 21:26:00,
2013-05-17 17:39:00,82.0,72.0,30.02,East,84,2.0,8.0,71,0.00,,,0.07,,2013-05-17 21:39:00,
2013-05-17 17:49:00,82.0,71.0,30.02,SE,142,4.0,11.0,70,0.00,,,0.07,,2013-05-17 21:49:00,
2013-05-17 17:58:00,82.0,71.0,30.02,SE,142,4.0,11.0,70,0.00,,,0.07,,2013-05-17 21:58:00,
2013-05-17 18:07:00,82.0,72.0,30.02,SSE,160,2.0,11.0,72,0.00,,,0.07,,2013-05-17 22:07:00,
2013-05-17 18:17:00,82.0,72.0,30.02,SSE,160,2.0,11.0,72,0.00,,,0.07,,2013-05-17 22:17:00,
2013-05-17 18:28:00,81.0,72.0,30.02,SE,129,3.0,9.0,74,0.00,,,0.07,,2013-05-17 22:28:00,
2013-05-17 18:38:00,81.0,72.0,30.02,SE,128,3.0,7.0,74,0.00,,,0.07,,2013-05-17 22:38:00,
2013-05-17 18:47:00,81.0,72.0,30.02,SE,128,3.0,7.0,74,0.00,,,0.07,,2013-05-17 22:47:00,
2013-05-17 18:55:00,80.0,71.0,30.02,ESE,106,3.0,10.0,74,0.00,,,0.07,,2013-05-17 22:55:00,
2013-05-17 19:04:00,81.0,72.0,30.02,ESE,107,2.0,9.0,75,0.00,,,0.07,,2013-05-17 23:04:00,
2013-05-17 19:13:00,81.0,72.0,30.02,ESE,107,2.0,9.0,75,0.00,,,0.07,,2013-05-17 23:13:00,
2013-05-17 19:23:00,80.0,71.0,30.03,ESE,109,1.0,7.0,75,0.00,,,0.07,,2013-05-17 23:23:00,
2013-05-17 19:37:00,80.0,72.0,30.03,ESE,111,1.0,8.0,76,0.00,,,0.07,,2013-05-17 23:37:00,
2013-05-17 19:47:00,80.0,72.0,30.03,ESE,111,1.0,8.0,76,0.00,,,0.07,,2013-05-17 23:47:00,
2013-05-17 19:54:00,79.0,71.0,30.03,ESE,119,1.0,7.0,76,0.00,,,0.07,,2013-05-17 23:54:00,
2013-05-17 20:02:00,79.0,71.0,30.03,South,169,2.0,7.0,76,0.00,,,0.07,,2013-05-18 00:02:00,
2013-05-17 20:14:00,79.0,71.0,30.03,South,169,2.0,7.0,76,0.00,,,0.07,,2013-05-18 00:14:00,
2013-05-17 20:22:00,79.0,71.0,30.04,SE,129,2.0,8.0,77,0.00,,,0.07,,2013-05-18 00:22:00,
2013-05-17 20:33:00,79.0,71.0,30.04,East,98,3.0,8.0,77,0.00,,,0.07,,2013-05-18 00:33:00,
2013-05-17 20:44:00,79.0,71.0,30.04,East,98,3.0,8.0,77,0.00,,,0.07,,2013-05-18 00:44:00,
2013-05-17 20:54:00,79.0,71.0,30.04,ESE,113,0.0,6.0,77,0.00,,,0.07,,2013-05-18 00:54:00,
2013-05-17 21:03:00,79.0,71.0,30.04,ESE,105,4.0,9.0,77,0.00,,,0.07,,2013-05-18 01:03:00,
2013-05-17 21:13:00,79.0,71.0,30.04,ESE,105,4.0,9.0,77,0.00,,,0.07,,2013-05-18 01:13:00,
2013-05-17 21:24:00,79.0,71.0,30.05,SE,128,3.0,6.0,77,0.00,,,0.07,,2013-05-18 01:24:00,
2013-05-17 21:32:00,79.0,72.0,30.05,SSE,155,3.0,8.0,78,0.00,,,0.07,,2013-05-18 01:32:00,
2013-05-17 21:43:00,79.0,72.0,30.05,SSE,155,3.0,8.0,78,0.00,,,0.07,,2013-05-18 01:43:00,
2013-05-17 21:52:00,79.0,72.0,30.05,SE,140,4.0,9.0,79,0.00,,,0.07,,2013-05-18 01:52:00,
2013-05-17 22:02:00,79.0,72.0,30.06,SE,142,2.0,7.0,79,0.00,,,0.07,,2013-05-18 02:02:00,
2013-05-17 22:12:00,79.0,72.0,30.06,SE,142,2.0,7.0,79,0.00,,,0.07,,2013-05-18 02:12:00,
2013-05-17 22:22:00,78.0,71.0,30.06,SE,139,3.0,9.0,79,0.00,,,0.07,,2013-05-18 02:22:00,
2013-05-17 22:31:00,78.0,71.0,30.06,ESE,111,3.0,9.0,79,0.00,,,0.07,,2013-05-18 02:31:00,
2013-05-17 22:42:00,78.0,71.0,30.06,ESE,111,3.0,9.0,79,0.00,,,0.07,,2013-05-18 02:42:00,
2013-05-17 22:54:00,79.0,72.0,30.06,SE,134,4.0,8.0,79,0.00,,,0.07,,2013-05-18 02:54:00,
2013-05-17 23:03:00,79.0,72.0,30.06,ESE,117,1.0,10.0,78,0.00,,,0.07,,2013-05-18 03:03:00,
2013-05-17 23:12:00,79.0,72.0,30.06,ESE,117,1.0,10.0,78,0.00,,,0.07,,2013-05-18 03:12:00,
2013-05-17 23:23:00,78.0,71.0,30.06,ESE,119,2.0,7.0,78,0.00,,,0.07,,2013-05-18 03:23:00,
2013-05-17 23:33:00,78.0,71.0,30.06,SSE,153,3.0,9.0,79,0.00,,,0.07,,2013-05-18 03:33:00,
2013-05-17 23:43:00,78.0,71.0,30.06,SSE,153,3.0,9.0,79,0.00,,,0.07,,2013-05-18 03:43:00,
2013-05-17 23:53:00,78.0,71.0,30.06,SE,132,2.0,7.0,79,0.00,,,0.07,,2013-05-18 03:53:00,